Ridgeway, Iowa
Current Conditions -  °F | °C
As of 6:55 AM on Saturday 20 Dec 2014 (Local Time) from KDEH Reporting Station
Haze Haze  
Wind Chill: 18°   Ceiling: 800
Heat Index: 27°   Visibility: 6mi
Dew Point: 25°   Wind: 8mph
Humidity: 93%   Direction: 150°SSE
Pressure: 30.19"   Gusts: NA
Location:  43.3°N, 91.99°W
Report Text: KDEH 201255Z AUTO 15007KT 6SM BR OVC008 M03/M04 A3019 RMK AO2
Loading
Personal Weather Stations






























Interactive Weather Map New forecast layout! Learn more

10-Day Weather Forecast

Advertisements
Track Severe Weather on mobile